createdAt,value
2023-02-07T00:02:38.693Z,33.38
2023-02-07T00:07:41.695Z,37.50
2023-02-07T00:12:43.784Z,35.75
2023-02-07T00:17:45.872Z,37.97
2023-02-07T00:22:47.985Z,34.10
2023-02-07T00:27:50.220Z,41.47
2023-02-07T00:32:52.449Z,41.43
2023-02-07T00:37:55.531Z,40.50
2023-02-07T00:42:57.652Z,39.20
2023-02-07T00:47:59.725Z,37.67
2023-02-07T00:53:01.805Z,40.25
2023-02-07T00:58:03.915Z,42.80
2023-02-07T01:03:06.062Z,36.25
2023-02-07T01:08:08.344Z,33.55
2023-02-07T01:13:11.545Z,31.50
2023-02-07T01:18:14.248Z,33.08
2023-02-07T01:23:16.792Z,36.27
2023-02-07T01:28:18.914Z,35.58
2023-02-07T01:33:21.057Z,37.15
2023-02-07T01:38:23.137Z,40.07
2023-02-07T01:43:25.567Z,38.30
2023-02-07T01:48:32.507Z,36.67
2023-02-07T01:53:37.640Z,36.08
2023-02-07T01:58:40.184Z,40.35
2023-02-07T02:03:47.052Z,42.13
2023-02-07T02:08:50.652Z,38.63
2023-02-07T02:14:11.942Z,39.33
2023-02-07T02:19:58.760Z,39.85
2023-02-07T02:25:28.226Z,40.65
2023-02-07T02:30:49.132Z,40.33
2023-02-07T02:36:22.604Z,46.33
2023-02-07T02:41:33.121Z,38.80
2023-02-07T02:46:38.798Z,40.30
2023-02-07T02:51:41.057Z,42.38
2023-02-07T02:56:59.243Z,33.43
2023-02-07T03:02:12.558Z,30.33
2023-02-07T03:07:17.260Z,33.53
2023-02-07T03:12:27.418Z,33.95
2023-02-07T03:17:34.803Z,32.90
2023-02-07T03:22:38.017Z,33.00
2023-02-07T03:27:40.986Z,36.42
2023-02-07T03:32:49.776Z,38.87
2023-02-07T03:38:00.832Z,32.33
2023-02-07T03:43:08.392Z,37.47
2023-02-07T03:48:10.613Z,36.87
2023-02-07T03:53:12.738Z,40.17
2023-02-07T03:58:14.841Z,42.93
2023-02-07T04:03:16.968Z,37.45
2023-02-07T04:08:19.256Z,38.95
2023-02-07T04:13:21.346Z,40.97
2023-02-07T04:18:23.483Z,39.95
2023-02-07T04:23:25.552Z,38.73
2023-02-07T04:28:28.751Z,33.80
2023-02-07T04:33:30.848Z,38.70
2023-02-07T04:38:33.342Z,34.70
2023-02-07T04:43:37.496Z,35.35
2023-02-07T04:48:39.586Z,35.20
2023-02-07T04:53:42.193Z,36.03
2023-02-07T04:58:44.405Z,37.25
2023-02-07T05:03:46.592Z,42.40
2023-02-07T05:08:48.681Z,43.33
2023-02-07T05:13:51.364Z,56.90
2023-02-07T05:18:53.544Z,38.65
2023-02-07T05:23:55.647Z,41.25
2023-02-07T05:28:57.856Z,38.83
2023-02-07T05:33:59.986Z,31.80
2023-02-07T05:39:03.478Z,38.63
2023-02-07T05:44:07.059Z,43.35
2023-02-07T05:49:09.222Z,37.67
2023-02-07T05:54:11.347Z,45.25
2023-02-07T05:59:13.520Z,47.15
2023-02-07T06:04:15.629Z,43.70
2023-02-07T06:09:17.856Z,41.92
2023-02-07T06:14:20.017Z,36.83
2023-02-07T06:19:22.217Z,47.15
2023-02-07T06:24:24.324Z,38.33
2023-02-07T06:29:26.599Z,35.90
2023-02-07T06:34:28.967Z,37.38
2023-02-07T06:39:31.119Z,39.60
2023-02-07T06:44:33.188Z,42.65
2023-02-07T06:49:35.292Z,54.17
2023-02-07T06:54:37.375Z,61.03
2023-02-07T06:59:39.480Z,65.95
2023-02-07T07:04:41.604Z,54.10
2023-02-07T07:09:43.725Z,61.42
2023-02-07T07:14:46.034Z,68.70
2023-02-07T07:19:48.209Z,79.40
2023-02-07T07:24:50.325Z,74.53
2023-02-07T07:29:52.527Z,53.63
2023-02-07T07:34:54.722Z,49.72
2023-02-07T07:39:56.839Z,57.75
2023-02-07T07:44:58.951Z,44.87
2023-02-07T07:50:07.670Z,44.95
2023-02-07T07:55:10.133Z,47.00
2023-02-07T08:00:13.126Z,38.58
2023-02-07T08:05:15.410Z,40.50
2023-02-07T08:10:17.965Z,39.20
2023-02-07T08:15:20.404Z,39.22
2023-02-07T08:20:22.921Z,40.90
2023-02-07T08:25:25.797Z,37.97
2023-02-07T08:30:27.990Z,34.13
2023-02-07T08:35:30.173Z,35.93
2023-02-07T08:40:32.568Z,35.75
2023-02-07T08:45:34.834Z,32.28
2023-02-07T08:50:37.512Z,33.90
2023-02-07T08:55:44.004Z,36.85
2023-02-07T09:00:46.622Z,34.73
2023-02-07T09:05:48.776Z,36.95
2023-02-07T09:10:50.944Z,37.05
2023-02-07T09:15:59.426Z,35.72
2023-02-07T09:21:01.554Z,34.60
2023-02-07T09:26:05.836Z,33.87
2023-02-07T09:31:10.159Z,33.05
2023-02-07T09:36:23.763Z,31.50
2023-02-07T09:41:44.114Z,32.72
2023-02-07T09:47:01.684Z,28.48
2023-02-07T09:52:06.711Z,30.17
2023-02-07T09:57:17.192Z,30.35
2023-02-07T10:02:36.214Z,31.65
2023-02-07T10:07:38.407Z,34.08
2023-02-07T10:12:58.270Z,32.33
2023-02-07T10:18:15.646Z,29.17
2023-02-07T10:23:34.066Z,30.55
2023-02-07T10:28:56.040Z,26.90
2023-02-07T10:34:03.794Z,27.20
2023-02-07T10:39:24.509Z,25.20
2023-02-07T10:44:29.634Z,25.43
2023-02-07T10:49:34.864Z,25.42
2023-02-07T10:54:54.247Z,21.52
2023-02-07T11:00:21.871Z,23.48
2023-02-07T11:05:23.890Z,24.27
2023-02-07T11:10:37.470Z,21.40
2023-02-07T11:15:48.638Z,20.08
2023-02-07T11:20:53.281Z,19.42
2023-02-07T11:25:56.822Z,17.35
2023-02-07T11:31:03.654Z,18.08
2023-02-07T11:36:11.800Z,17.73
2023-02-07T11:41:20.068Z,18.25
2023-02-07T11:46:24.554Z,20.05
2023-02-07T11:51:28.786Z,20.40
2023-02-07T11:56:48.175Z,17.17
2023-02-07T12:01:56.663Z,18.10
2023-02-07T12:07:11.757Z,19.62
2023-02-07T12:12:20.039Z,20.85
2023-02-07T12:17:43.402Z,20.55
2023-02-07T12:23:07.760Z,18.85
2023-02-07T12:28:25.736Z,20.03
2023-02-07T12:33:35.760Z,19.98
2023-02-07T12:39:03.963Z,19.80
2023-02-07T12:44:18.187Z,18.97
2023-02-07T12:49:28.539Z,21.20
2023-02-07T12:54:45.581Z,21.53
2023-02-07T13:00:12.339Z,21.02
2023-02-07T13:05:28.587Z,21.67
2023-02-07T13:10:49.168Z,20.70
2023-02-07T13:16:06.731Z,20.98
2023-02-07T13:21:44.078Z,21.50
2023-02-07T13:26:53.018Z,23.00
2023-02-07T13:32:00.116Z,21.87
2023-02-07T13:37:16.178Z,22.80
2023-02-07T13:42:22.025Z,22.62
2023-02-07T13:47:42.215Z,25.23
2023-02-07T13:53:17.573Z,23.33
2023-02-07T13:58:53.698Z,23.67
2023-02-07T14:04:03.423Z,23.42
2023-02-07T14:09:17.791Z,22.35
2023-02-07T14:14:38.053Z,22.30
2023-02-07T14:19:45.481Z,23.12
2023-02-07T14:25:10.885Z,28.87
2023-02-07T14:30:15.344Z,25.52
2023-02-07T14:35:17.414Z,27.00
2023-02-07T14:40:42.535Z,23.40
2023-02-07T14:46:11.413Z,26.25
2023-02-07T14:51:16.012Z,24.92
2023-02-07T14:56:40.916Z,24.75
2023-02-07T15:01:43.098Z,26.27
2023-02-07T15:06:46.530Z,27.07
2023-02-07T15:11:59.829Z,25.88
2023-02-07T15:17:07.094Z,25.67
2023-02-07T15:22:23.954Z,26.92
2023-02-07T15:27:29.446Z,27.80
2023-02-07T15:32:35.113Z,30.93
2023-02-07T15:37:37.526Z,29.30
2023-02-07T15:42:53.539Z,29.25
2023-02-07T15:48:04.148Z,29.35
2023-02-07T15:53:09.274Z,28.52
2023-02-07T15:58:38.399Z,34.20
2023-02-07T16:03:46.102Z,32.00
2023-02-07T16:08:50.959Z,29.85
2023-02-07T16:14:11.738Z,31.30
2023-02-07T16:19:20.017Z,31.37
2023-02-07T16:24:24.493Z,30.07
2023-02-07T16:29:26.832Z,29.98
2023-02-07T16:34:28.991Z,33.13
2023-02-07T16:39:31.188Z,30.33
2023-02-07T16:44:36.912Z,33.72
2023-02-07T16:49:39.689Z,27.57
2023-02-07T16:54:42.030Z,26.10
2023-02-07T16:59:44.173Z,30.67
2023-02-07T17:04:46.340Z,28.90
2023-02-07T17:09:50.303Z,27.67
2023-02-07T17:14:52.837Z,26.00
2023-02-07T17:19:55.017Z,26.20
2023-02-07T17:24:59.667Z,28.73
2023-02-07T17:30:02.196Z,33.20
2023-02-07T17:35:04.490Z,37.85
2023-02-07T17:40:28.896Z,31.63
2023-02-07T17:45:32.670Z,37.70
2023-02-07T17:50:37.729Z,36.47
2023-02-07T17:55:40.145Z,43.15
2023-02-07T18:00:42.527Z,39.83
2023-02-07T18:05:45.239Z,40.87
2023-02-07T18:10:47.469Z,43.17
2023-02-07T18:15:49.778Z,40.58
2023-02-07T18:20:53.218Z,45.47
2023-02-07T18:25:55.726Z,46.85
2023-02-07T18:30:58.454Z,44.80
2023-02-07T18:36:01.105Z,45.67
2023-02-07T18:41:16.780Z,38.28
2023-02-07T18:46:20.618Z,44.00
2023-02-07T18:51:24.102Z,41.47
2023-02-07T18:56:26.841Z,41.43
2023-02-07T19:01:30.596Z,43.00
2023-02-07T19:06:34.308Z,44.60
2023-02-07T19:11:38.640Z,34.72
2023-02-07T19:16:41.590Z,42.42
2023-02-07T19:21:44.504Z,37.57
2023-02-07T19:26:48.411Z,43.38
2023-02-07T19:31:50.631Z,43.95
2023-02-07T19:36:53.906Z,40.28
2023-02-07T19:41:56.197Z,42.70
2023-02-07T19:46:58.493Z,45.93
2023-02-07T19:52:00.578Z,41.37
2023-02-07T19:57:02.698Z,41.37
2023-02-07T20:02:04.790Z,42.00
2023-02-07T20:07:06.972Z,50.25
2023-02-07T20:12:09.429Z,43.53
2023-02-07T20:17:11.658Z,44.15
2023-02-07T20:22:16.841Z,43.40
2023-02-07T20:27:19.566Z,50.08
2023-02-07T20:32:21.715Z,49.22
2023-02-07T20:37:23.959Z,43.97
2023-02-07T20:42:26.047Z,54.53
2023-02-07T20:47:28.183Z,46.92
2023-02-07T20:52:30.473Z,57.15
2023-02-07T20:57:32.720Z,49.42
2023-02-07T21:02:35.199Z,47.90
2023-02-07T21:07:37.443Z,47.30
2023-02-07T21:12:39.824Z,43.15
2023-02-07T21:17:42.067Z,48.17
2023-02-07T21:22:44.833Z,47.42
2023-02-07T21:27:46.976Z,48.10
2023-02-07T21:32:50.264Z,45.47
2023-02-07T21:37:52.442Z,44.70
2023-02-07T21:42:56.402Z,49.65
2023-02-07T21:47:58.490Z,51.15
2023-02-07T21:53:00.626Z,46.03
2023-02-07T21:58:02.890Z,48.80
2023-02-07T22:03:05.003Z,50.20
2023-02-07T22:08:08.184Z,53.35
2023-02-07T22:13:11.852Z,55.53
2023-02-07T22:18:14.255Z,55.73
2023-02-07T22:23:16.812Z,48.80
2023-02-07T22:28:18.955Z,57.42
2023-02-07T22:33:21.423Z,59.97
2023-02-07T22:38:23.528Z,58.70
2023-02-07T22:43:25.600Z,51.73
2023-02-07T22:48:27.687Z,59.22
2023-02-07T22:53:29.780Z,56.53
2023-02-07T22:58:32.350Z,56.25
2023-02-07T23:03:34.853Z,55.70
2023-02-07T23:08:36.977Z,57.27
2023-02-07T23:13:40.872Z,62.33
2023-02-07T23:18:43.200Z,57.53
2023-02-07T23:23:45.730Z,63.85
2023-02-07T23:28:48.089Z,60.47
2023-02-07T23:33:51.164Z,56.93
2023-02-07T23:38:53.435Z,56.78
2023-02-07T23:43:57.001Z,49.75
2023-02-07T23:48:59.319Z,54.08
2023-02-07T23:54:01.962Z,52.75
2023-02-07T23:59:04.273Z,52.33
